createdAt,value
2023-01-09T00:01:59.258Z,8.49
2023-01-09T00:07:01.178Z,8.46
2023-01-09T00:12:03.251Z,8.56
2023-01-09T00:17:05.114Z,8.54
2023-01-09T00:22:09.617Z,8.53
2023-01-09T00:27:11.618Z,8.49
2023-01-09T00:32:13.500Z,8.46
2023-01-09T00:37:15.391Z,8.42
2023-01-09T00:42:24.607Z,8.33
2023-01-09T00:47:32.192Z,8.26
2023-01-09T00:52:37.772Z,8.25
2023-01-09T00:57:39.958Z,8.28
2023-01-09T01:02:41.921Z,8.29
2023-01-09T01:07:45.085Z,8.39
2023-01-09T01:12:48.706Z,8.39
2023-01-09T01:17:50.567Z,8.43
2023-01-09T01:22:52.447Z,8.45
2023-01-09T01:27:54.347Z,8.43
2023-01-09T01:32:56.322Z,8.42
2023-01-09T01:37:58.167Z,8.37
2023-01-09T01:43:00.229Z,8.34
2023-01-09T01:48:27.735Z,8.25
2023-01-09T01:53:37.938Z,8.18
2023-01-09T01:58:49.794Z,8.16
2023-01-09T02:03:55.549Z,8.18
2023-01-09T02:08:57.955Z,8.26
2023-01-09T02:14:01.792Z,8.30
2023-01-09T02:19:21.595Z,8.32
2023-01-09T02:24:37.385Z,8.38
2023-01-09T02:30:05.456Z,8.45
2023-01-09T02:35:32.330Z,8.55
2023-01-09T02:40:43.287Z,8.64
2023-01-09T02:45:45.232Z,8.70
2023-01-09T02:51:11.435Z,8.77
2023-01-09T02:56:28.532Z,8.83
2023-01-09T03:02:20.874Z,8.86
2023-01-09T03:07:26.497Z,8.86
2023-01-09T03:12:32.516Z,8.83
2023-01-09T03:17:40.402Z,8.82
2023-01-09T03:22:59.633Z,8.82
2023-01-09T03:28:04.924Z,8.81
2023-01-09T03:33:06.827Z,8.81
2023-01-09T03:38:08.697Z,8.66
2023-01-09T03:43:10.655Z,8.70
2023-01-09T03:48:12.520Z,8.76
2023-01-09T03:53:14.678Z,8.75
2023-01-09T03:58:17.670Z,8.69
2023-01-09T04:03:21.054Z,8.67
2023-01-09T04:08:22.992Z,8.72
2023-01-09T04:13:25.047Z,8.76
2023-01-09T04:18:26.956Z,8.76
2023-01-09T04:23:28.843Z,8.78
2023-01-09T04:28:30.785Z,8.76
2023-01-09T04:33:32.733Z,8.75
2023-01-09T04:38:34.587Z,8.71
2023-01-09T04:43:36.483Z,8.66
2023-01-09T04:48:38.325Z,8.60
2023-01-09T04:53:40.159Z,8.60
2023-01-09T04:58:42.034Z,8.60
2023-01-09T05:03:43.931Z,8.61
2023-01-09T05:08:45.874Z,8.53
2023-01-09T05:13:47.745Z,8.55
2023-01-09T05:18:49.870Z,8.56
2023-01-09T05:23:51.833Z,8.57
2023-01-09T05:28:56.529Z,8.54
2023-01-09T05:34:00.889Z,8.46
2023-01-09T05:39:04.207Z,8.43
2023-01-09T05:44:06.054Z,8.41
2023-01-09T05:49:07.894Z,8.36
2023-01-09T05:54:09.783Z,8.37
2023-01-09T05:59:11.649Z,8.37
2023-01-09T06:04:13.525Z,8.36
2023-01-09T06:09:15.400Z,8.36
2023-01-09T06:14:17.334Z,8.32
2023-01-09T06:19:19.208Z,8.26
2023-01-09T06:24:21.099Z,8.26
2023-01-09T06:29:22.951Z,8.31
2023-01-09T06:34:24.830Z,8.32
2023-01-09T06:39:26.694Z,8.36
2023-01-09T06:44:28.642Z,8.27
2023-01-09T06:49:30.499Z,8.30
2023-01-09T06:54:32.362Z,8.31
2023-01-09T06:59:34.293Z,8.33
2023-01-09T07:04:36.225Z,8.39
2023-01-09T07:09:38.188Z,8.40
2023-01-09T07:14:40.082Z,8.41
2023-01-09T07:19:41.956Z,8.40
2023-01-09T07:24:47.587Z,8.41
2023-01-09T07:29:51.269Z,8.41
2023-01-09T07:34:53.274Z,8.45
2023-01-09T07:39:55.093Z,8.46
2023-01-09T07:44:56.902Z,8.56
2023-01-09T07:49:58.794Z,8.80
2023-01-09T07:55:00.691Z,9.03
2023-01-09T08:00:03.666Z,9.22
2023-01-09T08:05:15.880Z,9.35
2023-01-09T08:10:19.911Z,9.46
2023-01-09T08:15:23.077Z,9.54
2023-01-09T08:20:25.069Z,9.62
2023-01-09T08:25:27.071Z,9.72
2023-01-09T08:30:28.917Z,9.81
2023-01-09T08:35:30.884Z,9.90
2023-01-09T08:40:32.763Z,9.98
2023-01-09T08:45:53.118Z,10.08
2023-01-09T08:50:55.082Z,10.26
2023-01-09T08:55:57.001Z,10.36
2023-01-09T09:00:59.102Z,10.43
2023-01-09T09:06:00.972Z,10.46
2023-01-09T09:11:02.851Z,10.48
2023-01-09T09:16:05.343Z,10.54
2023-01-09T09:21:07.246Z,10.57
2023-01-09T09:26:09.358Z,10.62
2023-01-09T09:31:11.626Z,10.66
2023-01-09T09:36:13.566Z,10.69
2023-01-09T09:42:11.862Z,10.75
2023-01-09T10:02:29.370Z,11.20
2023-01-09T10:07:44.663Z,11.23
2023-01-09T10:12:53.743Z,11.17
2023-01-09T10:17:58.515Z,11.16
2023-01-09T10:23:12.292Z,11.10
2023-01-09T10:28:45.244Z,11.11
2023-01-09T10:34:41.883Z,11.09
2023-01-09T10:39:59.980Z,11.07
2023-01-09T10:45:19.185Z,11.06
2023-01-09T10:50:23.337Z,11.05
2023-01-09T10:55:45.520Z,10.82
2023-01-09T11:00:49.198Z,10.54
2023-01-09T11:05:56.642Z,10.28
2023-01-09T11:11:03.121Z,10.16
2023-01-09T11:16:17.338Z,10.08
2023-01-09T11:21:28.507Z,10.10
2023-01-09T11:26:30.871Z,10.12
2023-01-09T11:31:33.039Z,10.09
2023-01-09T11:36:34.934Z,10.11
2023-01-09T11:41:37.005Z,10.12
2023-01-09T11:46:42.555Z,10.16
2023-01-09T11:51:44.751Z,10.34
2023-01-09T11:56:47.439Z,10.48
2023-01-09T12:02:10.581Z,10.59
2023-01-09T12:07:57.648Z,10.79
2023-01-09T12:13:05.324Z,10.89
2023-01-09T12:18:09.967Z,10.99
2023-01-09T12:23:26.787Z,10.94
2023-01-09T12:28:42.817Z,10.94
2023-01-09T12:33:56.829Z,10.91
2023-01-09T12:39:06.260Z,10.85
2023-01-09T12:44:27.413Z,10.81
2023-01-09T12:49:43.219Z,11.56
2023-01-09T12:54:56.919Z,11.72
2023-01-09T13:00:23.650Z,12.08
2023-01-09T13:05:34.289Z,11.87
2023-01-09T13:10:43.517Z,11.68
2023-01-09T13:15:49.942Z,11.59
2023-01-09T13:20:56.600Z,11.46
2023-01-09T13:26:01.728Z,11.26
2023-01-09T13:31:51.556Z,11.25
2023-01-09T13:36:55.896Z,11.09
2023-01-09T13:42:18.479Z,11.01
2023-01-09T13:47:24.999Z,10.92
2023-01-09T13:52:39.526Z,10.91
2023-01-09T13:58:06.531Z,10.97
2023-01-09T14:03:08.269Z,10.78
2023-01-09T14:08:15.947Z,10.65
2023-01-09T14:13:22.820Z,10.57
2023-01-09T14:18:29.681Z,10.55
2023-01-09T14:24:01.182Z,10.51
2023-01-09T14:29:29.715Z,10.54
2023-01-09T14:34:37.381Z,10.51
2023-01-09T14:39:43.419Z,10.45
2023-01-09T14:45:03.788Z,10.38
2023-01-09T14:50:17.449Z,10.36
2023-01-09T14:55:33.050Z,10.36
2023-01-09T15:00:35.158Z,10.40
2023-01-09T15:05:37.092Z,10.45
2023-01-09T15:10:39.171Z,10.40
2023-01-09T15:15:46.943Z,10.41
2023-01-09T15:20:54.292Z,10.40
2023-01-09T15:25:57.976Z,10.32
2023-01-09T16:38:36.078Z,9.39
2023-01-09T16:43:38.142Z,9.25
2023-01-09T16:48:40.454Z,9.20
2023-01-09T16:53:42.407Z,9.08
2023-01-09T16:58:44.352Z,8.98
2023-01-09T17:03:47.897Z,8.88
2023-01-09T17:08:51.518Z,8.83
2023-01-09T17:13:53.373Z,8.79
2023-01-09T17:18:55.690Z,8.83
2023-01-09T17:24:17.963Z,8.81
2023-01-09T17:29:20.310Z,8.71
2023-01-09T17:34:22.231Z,8.73
2023-01-09T17:39:24.084Z,8.79
2023-01-09T17:44:26.548Z,8.66
2023-01-09T17:49:28.666Z,8.56
2023-01-09T17:54:30.690Z,8.59
2023-01-09T17:59:33.117Z,8.64
2023-01-09T18:04:38.553Z,8.65
2023-01-09T18:09:40.604Z,8.62
2023-01-09T18:14:42.627Z,8.61
2023-01-09T18:19:46.458Z,8.55
2023-01-09T18:24:48.308Z,8.45
2023-01-09T18:29:50.129Z,8.33
2023-01-09T18:34:52.084Z,8.26
2023-01-09T18:39:53.980Z,8.25
2023-01-09T18:44:55.914Z,8.27
2023-01-09T18:49:57.765Z,8.18
2023-01-09T18:54:59.770Z,8.15
2023-01-09T19:00:02.140Z,8.13
2023-01-09T19:05:04.581Z,8.13
2023-01-09T19:10:07.354Z,8.18
2023-01-09T19:15:11.705Z,8.23
2023-01-09T19:20:13.732Z,8.19
2023-01-09T19:25:15.935Z,8.14
2023-01-09T19:30:18.406Z,8.14
2023-01-09T19:35:20.542Z,8.11
2023-01-09T19:40:22.767Z,8.05
2023-01-09T19:45:25.507Z,7.99
2023-01-09T19:50:27.558Z,7.98
2023-01-09T19:55:29.738Z,8.00
2023-01-09T20:00:31.906Z,7.99
2023-01-09T20:05:34.070Z,7.98
2023-01-09T20:10:36.209Z,8.02
2023-01-09T20:15:38.244Z,8.02
2023-01-09T20:25:42.308Z,8.13
2023-01-09T20:30:46.568Z,8.25
2023-01-09T20:35:49.013Z,8.32
2023-01-09T20:40:51.357Z,8.36
2023-01-09T20:45:53.370Z,8.41
2023-01-09T20:50:55.776Z,8.45
2023-01-09T20:56:01.957Z,8.55
2023-01-09T21:01:09.369Z,8.59
2023-01-09T21:06:13.991Z,8.63
2023-01-09T21:11:15.970Z,8.65
2023-01-09T21:16:21.574Z,8.62
2023-01-09T21:21:27.830Z,8.63
2023-01-09T21:26:30.873Z,8.60
2023-01-09T21:31:36.064Z,8.51
2023-01-09T21:36:38.026Z,8.48
2023-01-09T21:41:58.634Z,8.52
2023-01-09T21:47:01.887Z,8.53
2023-01-09T21:52:04.729Z,8.57
2023-01-09T21:57:06.873Z,8.56
2023-01-09T22:02:17.550Z,8.54
2023-01-09T22:07:19.482Z,8.47
2023-01-09T22:12:22.081Z,8.46
2023-01-09T22:17:24.037Z,8.48
2023-01-09T22:22:25.870Z,8.53
2023-01-09T22:27:27.692Z,8.52
2023-01-09T22:32:29.510Z,8.63
2023-01-09T22:37:31.337Z,8.59
2023-01-09T22:42:33.170Z,8.60
2023-01-09T22:47:35.012Z,8.60
2023-01-09T22:52:36.939Z,8.61
2023-01-09T22:57:38.768Z,8.56
2023-01-09T23:02:40.735Z,8.47
2023-01-09T23:07:42.673Z,8.41
2023-01-09T23:12:48.327Z,8.33
2023-01-09T23:17:50.204Z,8.27
2023-01-09T23:22:52.053Z,8.26
2023-01-09T23:27:53.911Z,8.31
2023-01-09T23:32:55.793Z,8.31
2023-01-09T23:37:57.653Z,8.36
2023-01-09T23:43:11.572Z,8.41
2023-01-09T23:48:15.471Z,8.44
2023-01-09T23:53:18.894Z,8.43
2023-01-09T23:58:21.833Z,8.45
